createdAt,value
2022-12-19T00:00:34.283Z,-10.55
2022-12-19T00:05:39.251Z,-10.53
2022-12-19T00:10:41.604Z,-10.50
2022-12-19T00:15:43.464Z,-10.48
2022-12-19T00:20:45.299Z,-10.47
2022-12-19T00:25:47.087Z,-10.42
2022-12-19T00:30:51.751Z,-10.37
2022-12-19T00:36:22.930Z,-10.32
2022-12-19T00:41:26.359Z,-10.27
2022-12-19T00:46:32.782Z,-10.23
2022-12-19T00:51:36.749Z,-10.21
2022-12-19T00:56:38.697Z,-10.24
2022-12-19T01:01:43.728Z,-10.27
2022-12-19T01:06:48.409Z,-10.36
2022-12-19T01:12:09.263Z,-10.47
2022-12-19T01:17:11.752Z,-10.58
2022-12-19T01:22:14.099Z,-10.68
2022-12-19T01:27:16.455Z,-10.74
2022-12-19T01:32:18.203Z,-10.77
2022-12-19T01:37:20.629Z,-10.77
2022-12-19T01:42:24.266Z,-10.79
2022-12-19T01:47:26.433Z,-10.83
2022-12-19T01:52:28.356Z,-10.84
2022-12-19T01:57:30.229Z,-10.82
2022-12-19T02:02:36.064Z,-10.79
2022-12-19T02:07:39.861Z,-10.78
2022-12-19T02:12:43.820Z,-10.78
2022-12-19T02:18:17.496Z,-10.77
2022-12-19T02:23:28.139Z,-10.75
2022-12-19T02:28:55.301Z,-10.78
2022-12-19T02:34:23.062Z,-10.86
2022-12-19T02:39:47.064Z,-10.93
2022-12-19T02:44:52.119Z,-10.98
2022-12-19T02:49:54.013Z,-11.02
2022-12-19T02:55:01.852Z,-11.03
2022-12-19T03:00:17.886Z,-11.07
2022-12-19T03:05:32.044Z,-11.09
2022-12-19T03:10:54.444Z,-11.13
2022-12-19T03:15:58.463Z,-11.16
2022-12-19T03:21:12.738Z,-11.18
2022-12-19T03:26:37.731Z,-11.21
2022-12-19T03:31:40.786Z,-11.22
2022-12-19T03:36:51.827Z,-11.24
2022-12-19T03:42:13.423Z,-11.32
2022-12-19T03:47:32.189Z,-11.49
2022-12-19T03:52:47.044Z,-11.64
2022-12-19T03:58:12.704Z,-11.80
2022-12-19T04:03:19.921Z,-11.89
2022-12-19T04:08:24.044Z,-11.99
2022-12-19T04:13:41.300Z,-12.09
2022-12-19T04:18:53.378Z,-12.14
2022-12-19T04:24:02.834Z,-12.17
2022-12-19T04:29:07.353Z,-12.16
2022-12-19T04:34:09.121Z,-12.15
2022-12-19T04:39:10.963Z,-12.18
2022-12-19T04:44:12.769Z,-12.24
2022-12-19T04:49:14.775Z,-12.29
2022-12-19T04:54:16.913Z,-12.32
2022-12-19T04:59:18.788Z,-12.36
2022-12-19T05:04:20.660Z,-12.36
2022-12-19T05:09:22.552Z,-12.35
2022-12-19T05:14:24.492Z,-12.34
2022-12-19T05:19:26.271Z,-12.37
2022-12-19T05:24:28.122Z,-12.32
2022-12-19T05:29:29.948Z,-12.31
2022-12-19T05:34:32.238Z,-12.26
2022-12-19T05:39:35.016Z,-12.27
2022-12-19T05:44:36.788Z,-12.27
2022-12-19T05:49:38.642Z,-12.27
2022-12-19T05:54:40.560Z,-12.27
2022-12-19T05:59:42.458Z,-12.27
2022-12-19T06:04:44.369Z,-12.26
2022-12-19T06:09:46.227Z,-12.26
2022-12-19T06:14:48.065Z,-12.30
2022-12-19T06:19:49.862Z,-12.33
2022-12-19T06:24:51.622Z,-12.41
2022-12-19T06:29:53.615Z,-12.48
2022-12-19T06:35:04.155Z,-12.56
2022-12-19T06:40:07.612Z,-12.65
2022-12-19T06:45:09.954Z,-12.75
2022-12-19T06:50:11.805Z,-12.83
2022-12-19T06:55:13.846Z,-12.91
2022-12-19T07:00:16.934Z,-13.00
2022-12-19T07:05:19.256Z,-13.04
2022-12-19T07:10:21.055Z,-13.02
2022-12-19T07:15:23.937Z,-12.94
2022-12-19T07:20:28.391Z,-12.80
2022-12-19T07:25:30.354Z,-12.60
2022-12-19T07:30:32.138Z,-12.38
2022-12-19T07:35:34.051Z,-12.18
2022-12-19T07:40:36.334Z,-11.97
2022-12-19T07:45:38.499Z,-11.72
2022-12-19T07:50:41.797Z,-11.52
2022-12-19T07:55:43.684Z,-11.33
2022-12-19T08:00:45.595Z,-11.11
2022-12-19T08:05:47.465Z,-10.89
2022-12-19T08:10:49.341Z,-10.60
2022-12-19T08:15:51.265Z,-9.96
2022-12-19T08:20:53.753Z,-9.70
2022-12-19T08:26:03.889Z,-9.76
2022-12-19T08:31:11.553Z,-9.83
2022-12-19T08:36:16.064Z,-9.82
2022-12-19T08:41:18.515Z,-9.88
2022-12-19T08:46:21.344Z,-9.80
2022-12-19T08:51:23.347Z,-9.73
2022-12-19T08:56:25.226Z,-9.61
2022-12-19T09:01:27.102Z,-9.36
2022-12-19T09:06:29.241Z,-9.12
2022-12-19T09:11:31.441Z,-8.87
2022-12-19T09:16:33.263Z,-8.56
2022-12-19T09:21:35.080Z,-8.26
2022-12-19T09:26:39.391Z,-7.92
2022-12-19T09:31:41.338Z,-7.55
2022-12-19T09:36:43.148Z,-7.29
2022-12-19T09:42:02.449Z,-7.17
2022-12-19T09:47:13.375Z,-7.14
2022-12-19T09:52:36.024Z,-7.08
2022-12-19T09:57:50.060Z,-7.04
2022-12-19T10:03:17.028Z,-6.89
2022-12-19T10:08:31.695Z,-6.66
2022-12-19T10:13:53.109Z,-6.42
2022-12-19T10:19:00.391Z,-6.12
2022-12-19T10:24:38.948Z,-5.79
2022-12-19T10:30:02.138Z,-5.33
2022-12-19T10:35:14.491Z,-4.77
2022-12-19T10:40:34.780Z,-4.32
2022-12-19T10:45:39.852Z,-3.98
2022-12-19T10:50:42.794Z,-3.78
2022-12-19T10:55:50.856Z,-3.52
2022-12-19T11:01:40.341Z,-3.26
2022-12-19T11:06:51.841Z,-2.93
2022-12-19T11:15:48.716Z,-2.65
2022-12-19T11:27:28.824Z,-2.44
2022-12-19T11:30:05.170Z,-2.24
2022-12-19T11:30:46.257Z,-2.11
2022-12-19T11:34:02.798Z,-2.00
2022-12-19T11:39:10.788Z,-1.86
2022-12-19T11:44:41.720Z,-1.72
2022-12-19T11:50:11.784Z,-1.51
2022-12-19T11:55:45.441Z,-1.32
2022-12-19T12:00:58.477Z,-1.16
2022-12-19T12:06:01.192Z,-1.09
2022-12-19T12:19:18.858Z,-1.00
2022-12-19T12:31:26.256Z,-0.85
2022-12-19T12:31:28.730Z,-0.91
2022-12-19T12:32:00.975Z,-0.82
2022-12-19T12:35:48.608Z,-0.92
2022-12-19T12:40:40.023Z,-0.95
2022-12-19T12:45:45.047Z,-0.88
2022-12-19T12:50:54.863Z,-0.88
2022-12-19T12:56:00.823Z,-0.89
2022-12-19T13:01:29.730Z,-0.93
2022-12-19T13:06:40.059Z,-0.94
2022-12-19T13:12:22.080Z,-0.96
2022-12-19T13:17:32.943Z,-1.02
2022-12-19T13:22:34.658Z,-1.07
2022-12-19T13:27:47.850Z,-1.16
2022-12-19T13:32:49.582Z,-1.24
2022-12-19T13:39:55.641Z,-1.29
2022-12-19T13:43:49.371Z,-1.37
2022-12-19T13:48:56.684Z,-1.47
2022-12-19T13:54:00.079Z,-1.56
2022-12-19T13:59:05.012Z,-1.65
2022-12-19T14:04:11.483Z,-1.73
2022-12-19T14:11:27.196Z,-1.84
2022-12-19T14:15:13.578Z,-1.96
2022-12-19T14:22:06.636Z,-2.05
2022-12-19T14:28:19.303Z,-2.16
2022-12-19T14:31:19.925Z,-2.26
2022-12-19T14:36:26.723Z,-2.38
2022-12-19T14:41:47.321Z,-2.51
2022-12-19T14:52:25.701Z,-2.66
2022-12-19T14:54:48.290Z,-2.79
2022-12-19T14:58:53.053Z,-2.87
2022-12-19T15:04:49.466Z,-2.92
2022-12-19T15:10:58.786Z,-2.97
2022-12-19T15:14:59.273Z,-3.01
2022-12-19T15:20:01.895Z,-3.00
2022-12-19T15:25:03.945Z,-2.97
2022-12-19T15:30:15.952Z,-2.91
2022-12-19T15:35:18.874Z,-2.87
2022-12-19T15:40:20.698Z,-2.78
2022-12-19T15:45:23.165Z,-2.65
2022-12-19T15:50:31.746Z,-2.59
2022-12-19T15:55:33.572Z,-2.54
2022-12-19T16:00:36.854Z,-2.50
2022-12-19T16:05:38.800Z,-2.48
2022-12-19T16:10:42.234Z,-2.46
2022-12-19T16:15:44.432Z,-2.46
2022-12-19T16:20:47.874Z,-2.50
2022-12-19T16:25:50.809Z,-2.54
2022-12-19T16:30:53.404Z,-2.58
2022-12-19T16:36:05.754Z,-2.59
2022-12-19T16:41:19.367Z,-2.57
2022-12-19T16:46:23.734Z,-2.53
2022-12-19T16:51:27.661Z,-2.52
2022-12-19T16:56:37.479Z,-2.49
2022-12-19T17:01:39.380Z,-2.43
2022-12-19T17:06:42.296Z,-2.36
2022-12-19T17:11:46.464Z,-2.28
2022-12-19T17:16:49.314Z,-2.21
2022-12-19T17:21:52.345Z,-2.13
2022-12-19T17:26:54.293Z,-2.04
2022-12-19T17:31:56.083Z,-1.95
2022-12-19T17:37:00.489Z,-1.89
2022-12-19T17:42:21.883Z,-1.85
2022-12-19T17:47:24.346Z,-1.84
2022-12-19T17:52:26.112Z,-1.83
2022-12-19T17:57:27.843Z,-1.81
2022-12-19T18:02:29.711Z,-1.78
2022-12-19T18:07:31.888Z,-1.72
2022-12-19T18:12:33.629Z,-1.66
2022-12-19T18:17:35.463Z,-1.66
2022-12-19T18:22:37.284Z,-1.65
2022-12-19T18:27:40.101Z,-1.63
2022-12-19T18:32:55.143Z,-1.61
2022-12-19T18:38:00.176Z,-1.59
2022-12-19T18:43:02.053Z,-1.59
2022-12-19T18:48:07.936Z,-1.61
2022-12-19T18:53:15.918Z,-1.63
2022-12-19T18:58:18.866Z,-1.63
2022-12-19T19:03:26.831Z,-1.61
2022-12-19T19:08:30.935Z,-1.59
2022-12-19T19:13:42.470Z,-1.58
2022-12-19T19:18:46.426Z,-1.56
2022-12-19T19:24:26.560Z,-1.53
2022-12-19T19:29:28.340Z,-1.48
2022-12-19T19:34:34.511Z,-1.45
2022-12-19T19:39:36.329Z,-1.40
2022-12-19T19:44:38.140Z,-1.35
2022-12-19T19:49:40.064Z,-1.31
2022-12-19T19:54:41.954Z,-1.29
2022-12-19T19:59:44.755Z,-1.28
2022-12-19T20:04:46.650Z,-1.29
2022-12-19T20:09:48.373Z,-1.28
2022-12-19T20:14:50.293Z,-1.28
2022-12-19T20:19:52.210Z,-1.29
2022-12-19T20:24:54.102Z,-1.31
2022-12-19T20:29:56.800Z,-1.31
2022-12-19T20:34:58.888Z,-1.31
2022-12-19T20:40:02.248Z,-1.27
2022-12-19T20:45:04.361Z,-1.23
2022-12-19T20:50:07.591Z,-1.19
2022-12-19T20:55:10.892Z,-1.14
2022-12-19T21:00:14.796Z,-1.10
2022-12-19T21:05:17.406Z,-1.07
2022-12-19T21:10:20.554Z,-1.05
2022-12-19T21:15:22.297Z,-1.01
2022-12-19T21:20:28.215Z,-0.99
2022-12-19T21:25:34.292Z,-0.95
2022-12-19T21:30:36.163Z,-0.93
2022-12-19T21:35:38.081Z,-0.93
2022-12-19T21:40:39.978Z,-0.93
2022-12-19T21:45:41.808Z,-0.94
2022-12-19T21:50:43.622Z,-0.95
2022-12-19T21:55:45.513Z,-0.94
2022-12-19T22:00:47.311Z,-0.93
2022-12-19T22:05:49.222Z,-0.92
2022-12-19T22:10:51.450Z,-0.93
2022-12-19T22:15:59.203Z,-0.93
2022-12-19T22:21:01.245Z,-0.93
2022-12-19T22:26:06.027Z,-0.95
2022-12-19T22:31:24.454Z,-0.94
2022-12-19T22:36:28.977Z,-0.92
2022-12-19T22:41:33.101Z,-0.90
2022-12-19T22:46:37.159Z,-0.88
2022-12-19T22:51:39.850Z,-0.82
2022-12-19T22:56:42.269Z,-0.80
2022-12-19T23:01:44.399Z,-0.78
2022-12-19T23:06:46.499Z,-0.77
2022-12-19T23:11:49.469Z,-0.76
2022-12-19T23:16:51.445Z,-0.76
2022-12-19T23:21:53.519Z,-0.77
2022-12-19T23:26:55.439Z,-0.78
2022-12-19T23:31:57.343Z,-0.79
2022-12-19T23:37:10.639Z,-0.82
2022-12-19T23:42:12.991Z,-0.84
2022-12-19T23:47:15.149Z,-0.83
2022-12-19T23:52:16.871Z,-0.80
2022-12-19T23:57:18.625Z,-0.75
